Mashhad International Airport

Airport
ICAO code: 
OIMM
IATA Code: 
MHD
Summary
ICAO Region: 
MID
Territory: 
Location: 
Mashhad, Razavi Khorasan Province
Serving: 
Mashhad
Elevation: 
3263 ft
Coordinates: 
Aerial View: 
36° 14' 7.309" N, 59° 38' 26.772" E
Metar
Observation
OIMM 221130Z 09004KT 9999 FEW035 05/M06 Q1019 A3009
Station
Mashhad
Date/Time
2022-01-22 11:30:00
Wind direction
90°
Wind speed
04 kts
Lowest cloud amount
few clouds
Temperature
5°C
Dew point
-6°C
Humidity
44%
QNH
1019 hPa
Weather condition
n/a

Mashhad International Airport or Shahid Hashemi Nejad Airport is an airport in Mashhad, Razavi Khorasan, Iran.

Climatology

Cold Semi-arid climate (Köppen climate classification BSk). - Hot, sometimes extremely hot summers and cold, sometimes very cold winters. Some snowfall during the winter. Areas featuring cold semi-arid climates are sometimes subject to major temperature swings during a 24 hour period.

Runways

Designator Length Width Surface Rops
13L/31R 3811 45 ASP Yes/Yes
13R/31L 3925 45 ASP Yes/Yes
Airport map: 
Aerial View: 

SKYbrary Partners:

Safety knowledge contributed by: